Time;durP1;ratioP1;P1;durP2;ratioP2;P2;SDS_P1;SDS_P2;PMS_P1;PMS_P2;Temp;Humidity;BMP_temperature;BMP_pressure;BME280_temperature;BME280_humidity;BME280_pressure;Samples;Min_cycle;Max_cycle;Signal;HPM_P1;HPM_P2
2024/01/13 00:00:00;;;;;;;27.88;19.20;;;;;;;1.66;100.00;102921.47;5069373;28;20036;-38
2024/01/13 00:02:25;;;;;;;28.90;19.23;;;;;;;1.49;100.00;102892.63;5069918;28;20025;-38
2024/01/13 00:04:51;;;;;;;28.27;20.37;;;;;;;1.66;100.00;102915.25;5068091;28;20028;-38
2024/01/13 00:07:16;;;;;;;26.97;18.13;;;;;;;1.65;100.00;102908.25;5061107;28;20108;-38
2024/01/13 00:09:41;;;;;;;34.93;20.47;;;;;;;1.65;100.00;102909.09;5056063;28;20024;-38
2024/01/13 00:12:07;;;;;;;33.23;20.87;;;;;;;1.65;100.00;102909.09;5055766;28;20025;-38
2024/01/13 00:14:32;;;;;;;41.33;26.53;;;;;;;1.57;100.00;102897.34;5056262;28;20029;-38
2024/01/13 00:16:57;;;;;;;40.97;25.97;;;;;;;1.63;100.00;102899.53;5056184;28;20086;-38
2024/01/13 00:19:23;;;;;;;29.73;21.17;;;;;;;1.64;100.00;102904.72;5055943;28;20037;-38
2024/01/13 00:21:48;;;;;;;26.20;18.87;;;;;;;1.65;100.00;102900.25;5056429;28;20048;-38
2024/01/13 00:24:14;;;;;;;29.53;20.33;;;;;;;1.62;100.00;102898.69;5055493;28;20025;-38
2024/01/13 00:26:39;;;;;;;21.35;17.25;;;;;;;1.64;100.00;102893.22;5056611;28;20036;-38
2024/01/13 00:29:05;;;;;;;23.97;16.70;;;;;;;1.63;100.00;102897.72;5056035;28;20025;-38
2024/01/13 00:31:30;;;;;;;20.77;15.87;;;;;;;1.65;100.00;102897.56;5055463;28;20147;-38
2024/01/13 00:33:55;;;;;;;20.50;15.20;;;;;;;1.57;100.00;102890.19;5055333;28;20025;-38
2024/01/13 00:36:21;;;;;;;20.20;16.70;;;;;;;1.56;100.00;102877.81;5055279;28;20163;-38
2024/01/13 00:38:47;;;;;;;21.37;16.20;;;;;;;1.63;100.00;102888.84;5055764;28;20025;-38
2024/01/13 00:41:12;;;;;;;25.13;17.08;;;;;;;1.62;100.00;102885.34;5055605;28;20498;-38
2024/01/13 00:43:37;;;;;;;18.57;14.57;;;;;;;1.63;100.00;102883.53;5055511;28;20514;-38
2024/01/13 00:46:03;;;;;;;19.93;15.33;;;;;;;1.64;100.00;102870.06;5056010;28;20045;-38
2024/01/13 00:48:29;;;;;;;20.58;15.23;;;;;;;1.63;100.00;102881.69;5055342;28;20631;-38
2024/01/13 00:50:54;;;;;;;21.83;15.30;;;;;;;1.59;100.00;102866.91;5055956;28;20033;-38
2024/01/13 00:53:19;;;;;;;21.30;14.57;;;;;;;1.62;100.00;102869.34;5055629;28;20025;-38
2024/01/13 00:55:45;;;;;;;19.93;15.07;;;;;;;1.63;100.00;102865.69;5056182;28;20056;-38
2024/01/13 00:58:11;;;;;;;18.58;15.18;;;;;;;1.57;100.00;102857.34;5055139;28;20056;-38
2024/01/13 01:00:36;;;;;;;17.52;14.43;;;;;;;1.61;100.00;102854.31;5055698;28;20029;-38
2024/01/13 01:03:02;;;;;;;21.67;15.40;;;;;;;1.62;100.00;102858.69;5055750;28;20376;-38
2024/01/13 01:05:27;;;;;;;20.87;14.57;;;;;;;1.62;100.00;102860.50;5055113;28;20267;-38
2024/01/13 01:07:53;;;;;;;21.67;15.43;;;;;;;1.61;100.00;102849.00;5055054;28;20033;-38
2024/01/13 01:10:18;;;;;;;20.63;14.57;;;;;;;1.59;100.00;102850.06;5054997;28;20031;-37
2024/01/13 01:12:43;;;;;;;20.77;16.67;;;;;;;1.59;100.00;102850.91;5054961;28;20021;-38
2024/01/13 01:15:09;;;;;;;20.43;14.87;;;;;;;1.59;100.00;102850.06;5054774;28;20103;-38
2024/01/13 01:17:34;;;;;;;20.30;15.25;;;;;;;1.57;100.00;102833.34;5054990;28;20035;-38
2024/01/13 01:20:00;;;;;;;19.57;14.87;;;;;;;1.49;100.00;102821.47;5053907;28;20037;-38
2024/01/13 01:22:25;;;;;;;19.63;14.13;;;;;;;1.59;100.00;102829.56;5054786;28;20458;-38
2024/01/13 01:24:50;;;;;;;17.40;12.90;;;;;;;1.57;100.00;102828.88;5053458;28;20044;-38
2024/01/13 01:27:16;;;;;;;20.80;14.87;;;;;;;1.57;100.00;102825.34;5054621;28;20029;-38
2024/01/13 01:29:41;;;;;;;19.93;14.57;;;;;;;1.49;100.00;102818.81;5054385;28;20040;-38
2024/01/13 01:32:06;;;;;;;21.47;15.13;;;;;;;1.52;100.00;102817.72;5054310;28;20017;-38
2024/01/13 01:34:31;;;;;;;18.70;15.30;;;;;;;1.56;100.00;102824.47;5054691;28;20067;-38
2024/01/13 01:36:57;;;;;;;20.50;15.20;;;;;;;1.54;100.00;102821.09;5054834;28;20036;-38
2024/01/13 01:39:22;;;;;;;26.33;17.77;;;;;;;1.54;100.00;102824.59;5054403;28;20145;-38
2024/01/13 01:41:47;;;;;;;21.80;16.33;;;;;;;1.54;100.00;102829.94;5055029;28;20057;-38
2024/01/13 01:44:13;;;;;;;22.60;15.33;;;;;;;1.53;100.00;102825.59;5054375;28;20032;-38
2024/01/13 01:46:39;;;;;;;16.33;13.20;;;;;;;1.53;100.00;102830.06;5054013;28;20029;-38
2024/01/13 01:49:05;;;;;;;19.27;14.73;;;;;;;1.51;100.00;102821.34;5054215;28;20100;-38
2024/01/13 01:51:32;;;;;;;16.85;14.18;;;;;;;1.51;100.00;102821.34;5054743;28;20033;-38
2024/01/13 01:53:58;;;;;;;16.73;13.90;;;;;;;1.51;100.00;102806.22;5054313;28;20061;-38
2024/01/13 01:56:28;;;;;;;19.70;14.93;;;;;;;1.51;100.00;102818.66;5055186;28;20056;-38
2024/01/13 01:58:54;;;;;;;18.25;14.52;;;;;;;1.50;100.00;102822.31;5054207;28;20029;-38
2024/01/13 02:01:22;;;;;;;16.65;14.48;;;;;;;1.51;100.00;102822.22;5054544;28;20056;-38
2024/01/13 02:03:48;;;;;;;18.17;14.50;;;;;;;1.49;100.00;102807.28;5053677;28;20104;-38
2024/01/13 02:06:14;;;;;;;19.95;15.18;;;;;;;1.52;100.00;102810.56;5054399;28;20037;-38
2024/01/13 02:08:40;;;;;;;18.60;14.15;;;;;;;1.51;100.00;102800.00;5053802;28;20082;-38
2024/01/13 02:11:06;;;;;;;19.48;14.93;;;;;;;1.46;100.00;102792.38;5053831;28;20492;-38
2024/01/13 02:13:32;;;;;;;16.70;14.85;;;;;;;1.49;100.00;102791.28;5053573;28;20107;-38
2024/01/13 02:15:57;;;;;;;18.60;14.70;;;;;;;1.50;100.00;102803.66;5054266;28;20434;-38
2024/01/13 02:18:22;;;;;;;19.63;15.03;;;;;;;1.51;100.00;102800.00;5054172;28;20293;-38
2024/01/13 02:20:48;;;;;;;16.53;14.43;;;;;;;1.49;100.00;102796.63;5053788;28;20100;-38
2024/01/13 02:23:13;;;;;;;18.42;14.68;;;;;;;1.48;100.00;102789.59;5053329;28;20056;-38
2024/01/13 02:25:39;;;;;;;22.73;15.17;;;;;;;1.50;100.00;102790.31;5053975;28;20128;-38
2024/01/13 02:28:04;;;;;;;18.43;14.57;;;;;;;1.50;100.00;102791.16;5053547;28;20033;-38
2024/01/13 02:30:29;;;;;;;19.00;16.13;;;;;;;1.51;100.00;102776.00;5053857;28;20078;-38
2024/01/13 02:32:55;;;;;;;17.40;14.83;;;;;;;1.43;100.00;102765.97;5053298;28;20283;-38
2024/01/13 02:35:20;;;;;;;20.33;16.43;;;;;;;1.43;100.00;102762.47;5053408;28;20129;-38
2024/01/13 02:37:45;;;;;;;18.57;15.30;;;;;;;1.49;100.00;102772.63;5053818;28;20067;-38
2024/01/13 02:40:11;;;;;;;18.00;14.60;;;;;;;1.47;100.00;102762.09;5053422;28;20025;-38
2024/01/13 02:42:36;;;;;;;17.23;15.40;;;;;;;1.49;100.00;102769.97;5053746;28;20406;-38
2024/01/13 02:45:02;;;;;;;18.83;14.87;;;;;;;1.47;100.00;102751.44;5053837;28;20675;-38
2024/01/13 02:47:40;;;;;;;18.95;15.73;;;;;;;1.44;100.00;102738.34;5053598;28;20044;-38
2024/01/13 02:50:06;;;;;;;17.92;15.02;;;;;;;1.48;100.00;102736.28;5053238;28;20025;-38
2024/01/13 02:52:31;;;;;;;19.17;16.05;;;;;;;1.48;100.00;102731.78;5052986;28;20039;-38
2024/01/13 02:54:56;;;;;;;18.83;15.97;;;;;;;1.46;100.00;102733.72;5053031;28;20048;-38
2024/01/13 02:57:22;;;;;;;19.23;16.97;;;;;;;1.40;100.00;102718.22;5053815;28;20085;-38
2024/01/13 02:59:47;;;;;;;17.33;15.43;;;;;;;1.41;100.00;102713.75;5052907;28;20028;-38
2024/01/13 03:02:12;;;;;;;20.00;17.33;;;;;;;1.49;100.00;102722.81;5053978;28;20033;-38
2024/01/13 03:04:38;;;;;;;17.90;15.17;;;;;;;1.50;100.00;102713.00;5052860;28;20477;-38
2024/01/13 03:07:03;;;;;;;18.30;16.17;;;;;;;1.49;100.00;102716.63;5052933;28;20485;-38
2024/01/13 03:09:28;;;;;;;20.10;15.87;;;;;;;1.48;100.00;102707.81;5053132;28;20377;-38
2024/01/13 03:11:54;;;;;;;21.27;16.67;;;;;;;1.48;100.00;102709.63;5053202;28;20036;-38
2024/01/13 03:14:19;;;;;;;17.43;15.63;;;;;;;1.47;100.00;102711.44;5053078;28;20063;-38
2024/01/13 03:16:44;;;;;;;17.40;15.37;;;;;;;1.48;100.00;102698.97;5052985;28;20037;-38
2024/01/13 03:19:10;;;;;;;16.67;14.57;;;;;;;1.48;100.00;102693.63;5052962;28;20029;-38
2024/01/13 03:21:35;;;;;;;17.27;15.07;;;;;;;1.49;100.00;102695.31;5053366;28;20025;-38
2024/01/13 03:24:00;;;;;;;16.57;14.83;;;;;;;1.50;100.00;102689.00;5052765;28;20033;-38
2024/01/13 03:26:26;;;;;;;15.30;13.73;;;;;;;1.49;100.00;102685.50;5053050;28;20115;-38
2024/01/13 03:28:51;;;;;;;16.57;13.70;;;;;;;1.50;100.00;102686.34;5052960;28;20100;-38
2024/01/13 03:31:16;;;;;;;15.10;13.23;;;;;;;1.52;100.00;102677.25;5053426;28;20044;-38
2024/01/13 03:33:42;;;;;;;13.37;12.03;;;;;;;1.45;100.00;102657.38;5052874;28;20552;-38
2024/01/13 03:36:08;;;;;;;14.20;12.63;;;;;;;1.55;100.00;102673.47;5052694;28;20112;-38
2024/01/13 03:38:34;;;;;;;13.02;11.38;;;;;;;1.45;100.00;102651.22;5052492;28;20032;-38
2024/01/13 03:40:59;;;;;;;12.90;11.37;;;;;;;1.57;100.00;102676.88;5053306;28;20033;-38
2024/01/13 03:43:24;;;;;;;12.07;10.60;;;;;;;1.57;100.00;102660.88;5056042;28;20453;-38
2024/01/13 03:45:50;;;;;;;11.87;10.20;;;;;;;1.51;100.00;102645.34;5056621;28;20040;-38
2024/01/13 03:48:15;;;;;;;12.17;9.67;;;;;;;1.60;100.00;102668.59;5056863;28;20159;-38
2024/01/13 03:50:40;;;;;;;11.47;10.37;;;;;;;1.48;100.00;102634.97;5056872;28;20056;-38
2024/01/13 03:53:06;;;;;;;10.73;9.60;;;;;;;1.60;100.00;102651.75;5056181;28;20029;-38
2024/01/13 03:55:31;;;;;;;10.63;9.57;;;;;;;1.63;100.00;102648.84;5056568;28;20040;-38
2024/01/13 03:57:56;;;;;;;10.37;9.37;;;;;;;1.64;100.00;102646.03;5057166;28;20032;-38
2024/01/13 04:00:22;;;;;;;9.03;8.20;;;;;;;1.48;100.00;102625.16;5056004;28;20029;-38
2024/01/13 04:02:47;;;;;;;8.57;7.73;;;;;;;1.58;100.00;102635.03;5056312;28;20025;-38
2024/01/13 04:05:12;;;;;;;9.23;8.33;;;;;;;1.67;100.00;102636.94;5056232;28;20037;-38
2024/01/13 04:07:38;;;;;;;9.50;8.10;;;;;;;1.67;100.00;102637.78;5056182;28;20116;-38
2024/01/13 04:10:03;;;;;;;8.10;7.30;;;;;;;1.71;100.00;102641.91;5055871;28;20278;-38
2024/01/13 04:12:29;;;;;;;7.43;6.72;;;;;;;1.64;100.00;102619.38;5056132;28;20025;-38
2024/01/13 04:14:54;;;;;;;7.97;7.17;;;;;;;1.72;100.00;102632.06;5055969;28;20029;-38
2024/01/13 04:17:19;;;;;;;7.67;6.80;;;;;;;1.73;100.00;102629.25;5056328;28;20024;-38
2024/01/13 04:19:45;;;;;;;7.50;6.80;;;;;;;1.74;100.00;102624.78;5055615;28;20064;-38
2024/01/13 04:22:10;;;;;;;7.13;6.07;;;;;;;1.75;100.00;102629.97;5055649;28;20032;-38
2024/01/13 04:24:35;;;;;;;6.93;6.23;;;;;;;1.74;100.00;102620.28;5055862;28;20025;-38
2024/01/13 04:27:01;;;;;;;6.30;5.70;;;;;;;1.78;100.00;102621.72;5055859;28;20481;-38
2024/01/13 04:29:26;;;;;;;6.37;5.70;;;;;;;1.78;100.00;102620.88;5055732;28;20032;-38
2024/01/13 04:31:51;;;;;;;8.17;5.60;;;;;;;1.78;100.00;102616.38;5055840;28;20065;-38
2024/01/13 04:34:17;;;;;;;6.23;5.10;;;;;;;1.79;100.00;102617.22;5055721;28;20029;-38
2024/01/13 04:36:42;;;;;;;5.67;5.17;;;;;;;1.79;100.00;102617.22;5056140;28;20036;-38
2024/01/13 04:39:07;;;;;;;5.63;5.03;;;;;;;1.79;100.00;102617.22;5055889;28;20116;-38
2024/01/13 04:41:33;;;;;;;5.53;5.03;;;;;;;1.82;100.00;102618.81;5056194;28;20111;-38
2024/01/13 04:43:58;;;;;;;5.43;4.90;;;;;;;1.80;100.00;102611.75;5055279;28;20133;-38
2024/01/13 04:46:23;;;;;;;7.93;5.00;;;;;;;1.81;100.00;102609.97;5055456;28;20465;-38
2024/01/13 04:48:49;;;;;;;6.07;4.63;;;;;;;1.79;100.00;102607.41;5055408;28;20021;-38
2024/01/13 04:51:14;;;;;;;6.13;4.60;;;;;;;1.70;100.00;102597.50;5055616;28;20365;-38
2024/01/13 04:53:39;;;;;;;5.60;5.10;;;;;;;1.80;100.00;102608.25;5054956;28;20072;-38
2024/01/13 04:56:05;;;;;;;5.87;5.00;;;;;;;1.75;100.00;102605.97;5055715;28;20102;-38
2024/01/13 04:58:31;;;;;;;7.90;5.30;;;;;;;1.79;100.00;102606.56;5055552;28;20465;-38
2024/01/13 05:00:56;;;;;;;5.25;4.70;;;;;;;1.76;100.00;102607.69;5055751;28;20033;-38
2024/01/13 05:03:22;;;;;;;6.10;5.50;;;;;;;1.75;100.00;102600.63;5055123;28;20028;-38
2024/01/13 05:05:47;;;;;;;6.73;5.77;;;;;;;1.76;100.00;102606.84;5055213;28;20396;-38
2024/01/13 05:08:12;;;;;;;7.13;6.13;;;;;;;1.76;100.00;102597.00;5055609;28;20029;-38
2024/01/13 05:10:38;;;;;;;8.63;6.27;;;;;;;1.73;100.00;102597.25;5055092;28;20025;-38
2024/01/13 05:13:03;;;;;;;7.70;6.63;;;;;;;1.79;100.00;102591.38;5055214;28;20025;-38
2024/01/13 05:15:28;;;;;;;7.65;6.15;;;;;;;1.76;100.00;102599.69;5055103;28;20058;-38
2024/01/13 05:17:54;;;;;;;9.43;6.93;;;;;;;1.80;100.00;102609.09;5054682;28;20393;-38
2024/01/13 05:20:19;;;;;;;7.87;6.73;;;;;;;1.79;100.00;102602.06;5054613;28;20025;-38
2024/01/13 05:22:44;;;;;;;8.37;7.17;;;;;;;1.78;100.00;102602.19;5054744;28;20028;-38
2024/01/13 05:25:10;;;;;;;7.90;6.97;;;;;;;1.78;100.00;102605.72;5054638;28;20036;-38
2024/01/13 05:27:35;;;;;;;8.50;7.67;;;;;;;1.79;100.00;102603.88;5054990;28;20025;-38
2024/01/13 05:30:00;;;;;;;9.03;7.83;;;;;;;1.71;100.00;102591.22;5054136;28;20033;-38
2024/01/13 05:32:26;;;;;;;9.00;7.77;;;;;;;1.80;100.00;102602.91;5054865;28;20036;-38
2024/01/13 05:34:51;;;;;;;10.37;8.60;;;;;;;1.80;100.00;102600.22;5054463;28;20021;-38
2024/01/13 05:37:16;;;;;;;10.13;8.70;;;;;;;1.79;100.00;102596.72;5054831;28;20032;-38
2024/01/13 05:39:42;;;;;;;10.77;8.17;;;;;;;1.79;100.00;102595.88;5055265;28;20039;-38
2024/01/13 05:42:08;;;;;;;12.43;9.90;;;;;;;1.78;100.00;102589.72;5054494;28;20025;-38
2024/01/13 05:44:34;;;;;;;12.98;9.75;;;;;;;1.77;100.00;102585.34;5054046;28;20025;-38
2024/01/13 05:46:59;;;;;;;12.65;10.50;;;;;;;1.79;100.00;102585.22;5054324;28;20032;-38
2024/01/13 05:49:24;;;;;;;11.80;10.40;;;;;;;1.77;100.00;102588.03;5054714;28;20029;-38
2024/01/13 05:51:50;;;;;;;12.47;9.80;;;;;;;1.78;100.00;102597.72;5054280;28;20021;-38
2024/01/13 05:54:16;;;;;;;12.23;10.47;;;;;;;1.77;100.00;102596.03;5053923;28;20040;-38
2024/01/13 05:56:41;;;;;;;12.55;10.77;;;;;;;1.77;100.00;102593.34;5054683;28;20049;-38
2024/01/13 05:59:07;;;;;;;12.97;10.80;;;;;;;1.77;100.00;102592.50;5054007;28;20025;-38
2024/01/13 06:01:32;;;;;;;14.10;11.77;;;;;;;1.76;100.00;102589.00;5054659;28;20252;-38
2024/01/13 06:03:57;;;;;;;13.23;11.83;;;;;;;1.78;100.00;102599.53;5054087;28;20321;-38
2024/01/13 06:06:23;;;;;;;15.37;12.83;;;;;;;1.77;100.00;102600.53;5053584;28;20037;-38
2024/01/13 06:08:48;;;;;;;14.77;13.20;;;;;;;1.76;100.00;102594.34;5053867;28;20267;-38
2024/01/13 06:11:15;;;;;;;15.33;13.73;;;;;;;1.74;100.00;102576.75;5054177;28;20445;-38
2024/01/13 06:13:40;;;;;;;18.02;15.55;;;;;;;1.77;100.00;102571.19;5053824;28;20048;-38
2024/01/13 06:16:06;;;;;;;17.20;15.33;;;;;;;1.77;100.00;102566.69;5054100;28;20118;-38
2024/01/13 06:18:31;;;;;;;17.50;14.77;;;;;;;1.78;100.00;102564.84;5053729;28;20029;-38
2024/01/13 06:20:56;;;;;;;21.23;16.80;;;;;;;1.76;100.00;102549.00;5054248;28;20082;-38
2024/01/13 06:23:22;;;;;;;21.07;17.70;;;;;;;1.75;100.00;102541.09;5053395;28;20037;-38
2024/01/13 06:25:47;;;;;;;19.97;17.13;;;;;;;1.74;100.00;102545.59;5053397;28;20032;-38
2024/01/13 06:28:13;;;;;;;23.30;19.73;;;;;;;1.74;100.00;102529.59;5053852;28;20063;-38
2024/01/13 06:30:38;;;;;;;22.73;18.95;;;;;;;1.68;100.00;102518.63;5053876;28;20033;-38
2024/01/13 06:33:03;;;;;;;23.03;19.57;;;;;;;1.72;100.00;102526.22;5053294;28;20469;-38
2024/01/13 06:35:29;;;;;;;24.50;20.20;;;;;;;1.64;100.00;102525.19;5053079;28;20648;-38
2024/01/13 06:37:54;;;;;;;22.80;20.07;;;;;;;1.72;100.00;102544.91;5054031;28;20021;-38
2024/01/13 06:40:20;;;;;;;27.00;22.00;;;;;;;1.70;100.00;102533.50;5053474;28;20048;-38
2024/01/13 06:42:45;;;;;;;30.10;23.57;;;;;;;1.61;100.00;102512.97;5053679;28;20025;-38
2024/01/13 06:45:10;;;;;;;29.93;24.20;;;;;;;1.68;100.00;102515.94;5053104;28;20064;-38
2024/01/13 06:47:36;;;;;;;28.93;23.07;;;;;;;1.69;100.00;102531.81;5054191;28;20025;-38
2024/01/13 06:50:03;;;;;;;31.47;25.17;;;;;;;1.69;100.00;102515.81;5053329;28;20274;-38
2024/01/13 06:52:28;;;;;;;30.27;24.95;;;;;;;1.62;100.00;102497.81;5053039;28;20035;-38
2024/01/13 06:54:53;;;;;;;31.77;25.15;;;;;;;1.70;100.00;102501.50;5053046;28;20045;-38
2024/01/13 06:57:20;;;;;;;31.40;25.33;;;;;;;1.68;100.00;102497.28;5053009;28;20116;-38
2024/01/13 06:59:45;;;;;;;32.75;25.38;;;;;;;1.69;100.00;102510.47;5053717;28;20033;-38
2024/01/13 07:02:11;;;;;;;32.10;24.67;;;;;;;1.54;100.00;102477.13;5053776;28;20029;-38
2024/01/13 07:04:38;;;;;;;33.20;26.75;;;;;;;1.70;100.00;102495.31;5053155;28;20028;-38
2024/01/13 07:07:04;;;;;;;30.58;24.83;;;;;;;1.71;100.00;102483.69;5053463;28;20139;-38
2024/01/13 07:09:29;;;;;;;31.05;26.58;;;;;;;1.71;100.00;102471.19;5053138;28;20059;-38
2024/01/13 07:11:55;;;;;;;33.20;27.60;;;;;;;1.71;100.00;102476.53;5054004;28;20116;-38
2024/01/13 07:14:20;;;;;;;33.73;27.30;;;;;;;1.65;100.00;102461.03;5053044;28;20472;-38
2024/01/13 07:16:45;;;;;;;32.07;26.43;;;;;;;1.72;100.00;102472.03;5053206;28;20286;-39
2024/01/13 07:19:11;;;;;;;31.17;24.83;;;;;;;1.72;100.00;102464.88;5056767;28;20032;-38
2024/01/13 07:21:36;;;;;;;32.63;26.10;;;;;;;1.72;100.00;102470.22;5056316;28;20029;-39
2024/01/13 07:24:03;;;;;;;29.77;25.27;;;;;;;1.66;100.00;102452.09;5056969;28;20071;-38
2024/01/13 07:26:29;;;;;;;35.05;26.23;;;;;;;1.72;100.00;102456.88;5056940;28;20063;-38
2024/01/13 07:28:55;;;;;;;29.77;25.55;;;;;;;1.68;100.00;102451.94;5056806;28;20036;-39
2024/01/13 07:31:20;;;;;;;29.80;25.77;;;;;;;1.75;100.00;102464.59;5056904;28;20362;-38
2024/01/13 07:33:45;;;;;;;34.23;28.13;;;;;;;1.75;100.00;102459.25;5056780;28;20090;-38
2024/01/13 07:36:11;;;;;;;33.17;26.20;;;;;;;1.76;100.00;102465.47;5056802;28;20027;-39
2024/01/13 07:38:36;;;;;;;34.87;26.93;;;;;;;1.75;100.00;102451.25;5056497;28;20107;-37
2024/01/13 07:41:02;;;;;;;31.75;26.27;;;;;;;1.70;100.00;102444.66;5056698;28;20499;-38
2024/01/13 07:43:27;;;;;;;31.20;24.67;;;;;;;1.74;100.00;102449.56;5056515;28;20033;-38
2024/01/13 07:45:53;;;;;;;32.23;26.43;;;;;;;1.77;100.00;102456.47;5056328;28;20287;-38
2024/01/13 07:48:18;;;;;;;31.13;25.30;;;;;;;1.77;100.00;102440.47;5056308;28;20039;-38
2024/01/13 07:50:43;;;;;;;36.10;27.33;;;;;;;1.75;100.00;102440.59;5057358;28;20021;-38
2024/01/13 07:53:09;;;;;;;33.80;26.90;;;;;;;1.70;100.00;102426.81;5056475;28;20473;-39
2024/01/13 07:55:34;;;;;;;34.73;27.57;;;;;;;1.75;100.00;102445.94;5056594;28;20307;-39
2024/01/13 07:57:59;;;;;;;32.03;25.67;;;;;;;1.74;100.00;102444.25;5056665;28;20083;-39
2024/01/13 08:00:26;;;;;;;31.90;25.27;;;;;;;1.68;100.00;102428.78;5055968;28;20032;-39
2024/01/13 08:02:51;;;;;;;32.08;25.05;;;;;;;1.76;100.00;102428.13;5056793;28;20025;-39
2024/01/13 08:05:17;;;;;;;30.83;25.93;;;;;;;1.75;100.00;102405.91;5055478;28;20468;-38
2024/01/13 08:07:42;;;;;;;30.37;25.93;;;;;;;1.66;100.00;102385.41;5056213;28;20029;-38
2024/01/13 08:10:09;;;;;;;32.50;25.83;;;;;;;1.74;100.00;102403.41;5056101;28;20465;-38
2024/01/13 08:12:35;;;;;;;34.78;26.85;;;;;;;1.71;100.00;102404.53;5056069;28;20108;-38
2024/01/13 08:15:00;;;;;;;33.80;26.57;;;;;;;1.69;100.00;102408.28;5055930;28;20120;-38
2024/01/13 08:17:26;;;;;;;37.80;27.93;;;;;;;1.67;100.00;102388.94;5056555;28;20056;-38
2024/01/13 08:19:51;;;;;;;33.50;27.40;;;;;;;1.77;100.00;102395.97;5056177;28;20024;-38
2024/01/13 08:22:16;;;;;;;33.23;27.10;;;;;;;1.77;100.00;102395.97;5055658;28;20100;-38
2024/01/13 08:24:42;;;;;;;36.13;28.47;;;;;;;1.75;100.00;102397.91;5056654;28;20438;-38
2024/01/13 08:27:07;;;;;;;33.13;25.50;;;;;;;1.79;100.00;102406.50;5055921;28;20066;-38
2024/01/13 08:29:33;;;;;;;36.85;28.33;;;;;;;1.71;100.00;102385.84;5055454;28;20480;-39
2024/01/13 08:31:58;;;;;;;35.13;27.73;;;;;;;1.73;100.00;102389.22;5055806;28;20112;-39
2024/01/13 08:34:23;;;;;;;33.50;26.27;;;;;;;1.82;100.00;102405.41;5055768;28;20036;-39
2024/01/13 08:36:49;;;;;;;34.03;26.83;;;;;;;1.82;100.00;102403.56;5055709;28;20064;-38
2024/01/13 08:39:14;;;;;;;36.27;27.60;;;;;;;1.81;100.00;102407.22;5055649;28;20389;-38
2024/01/13 08:41:39;;;;;;;31.37;25.63;;;;;;;1.85;100.00;102421.13;5056118;28;20039;-38
2024/01/13 08:44:05;;;;;;;33.90;25.83;;;;;;;1.85;100.00;102410.44;5055221;28;20036;-39
2024/01/13 08:46:30;;;;;;;36.63;28.77;;;;;;;1.84;100.00;102406.09;5055806;28;20052;-38
2024/01/13 08:48:56;;;;;;;33.40;27.07;;;;;;;1.88;100.00;102407.53;5055153;28;20025;-38
2024/01/13 08:51:21;;;;;;;34.92;27.80;;;;;;;1.78;100.00;102395.00;5055000;28;20318;-38
2024/01/13 08:53:46;;;;;;;36.50;28.33;;;;;;;1.87;100.00;102414.69;5055920;28;20373;-38
2024/01/13 08:56:12;;;;;;;32.23;26.53;;;;;;;1.89;100.00;102412.72;5055602;28;20049;-38
2024/01/13 08:58:38;;;;;;;34.75;28.05;;;;;;;1.90;100.00;102416.22;5054945;28;20051;-38
2024/01/13 09:01:03;;;;;;;33.70;26.90;;;;;;;1.91;100.00;102410.75;5055731;28;20454;-38
2024/01/13 09:03:29;;;;;;;38.72;27.55;;;;;;;1.92;100.00;102407.13;5055200;28;20532;-38
2024/01/13 09:05:54;;;;;;;35.33;27.00;;;;;;;1.94;100.00;102404.28;5055716;28;20063;-38
2024/01/13 09:08:20;;;;;;;31.73;26.58;;;;;;;1.85;100.00;102389.09;5055080;28;20118;-38
2024/01/13 09:10:45;;;;;;;35.60;27.80;;;;;;;1.95;100.00;102408.66;5055552;28;20079;-38
2024/01/13 09:13:10;;;;;;;35.13;27.10;;;;;;;1.95;100.00;102406.84;5055274;28;20051;-39
2024/01/13 09:15:36;;;;;;;35.27;28.30;;;;;;;1.97;100.00;102406.69;5054792;28;20025;-39
2024/01/13 09:18:03;;;;;;;36.00;28.52;;;;;;;1.90;100.00;102390.38;5055700;28;20021;-39
2024/01/13 09:20:28;;;;;;;38.25;29.45;;;;;;;1.96;100.00;102387.19;5054767;28;20040;-39
2024/01/13 09:22:54;;;;;;;36.42;28.63;;;;;;;1.96;100.00;102394.34;5055080;28;20379;-39
2024/01/13 09:25:19;;;;;;;36.60;27.17;;;;;;;1.97;100.00;102393.38;5054722;28;20115;-39
2024/01/13 09:27:44;;;;;;;35.70;28.63;;;;;;;1.98;100.00;102395.03;5055173;28;20029;-39
2024/01/13 09:30:11;;;;;;;32.67;26.90;;;;;;;1.98;100.00;102398.56;5054350;28;20024;-39
2024/01/13 09:32:36;;;;;;;34.85;28.17;;;;;;;2.00;100.00;102406.41;5054285;28;20036;-39
2024/01/13 09:35:02;;;;;;;33.28;27.33;;;;;;;1.98;100.00;102395.88;5054446;28;20025;-39
2024/01/13 09:37:28;;;;;;;35.03;27.17;;;;;;;2.01;100.00;102403.63;5054741;28;20432;-39
2024/01/13 09:39:53;;;;;;;34.37;27.00;;;;;;;2.00;100.00;102403.75;5053635;28;20044;-39
2024/01/13 09:42:29;;;;;;;32.60;26.73;;;;;;;2.01;100.00;102398.28;5055159;28;20025;-39
2024/01/13 09:44:55;;;;;;;36.17;27.70;;;;;;;1.94;100.00;102381.13;5054644;28;20296;-39
2024/01/13 09:47:20;;;;;;;34.20;28.10;;;;;;;1.87;100.00;102363.16;5054060;28;20501;-39
2024/01/13 09:49:47;;;;;;;34.55;27.42;;;;;;;2.03;100.00;102387.47;5053996;28;20033;-39
2024/01/13 09:52:13;;;;;;;36.00;29.58;;;;;;;2.04;100.00;102383.81;5054526;28;20507;-39
2024/01/13 09:54:42;;;;;;;39.10;29.10;;;;;;;2.03;100.00;102374.13;5053904;28;20029;-39
2024/01/13 09:57:08;;;;;;;36.22;28.85;;;;;;;2.03;100.00;102374.13;5054295;28;20133;-39
2024/01/13 09:59:33;;;;;;;32.43;27.73;;;;;;;2.04;100.00;102376.66;5054021;28;20086;-39
2024/01/13 10:02:00;;;;;;;36.90;30.70;;;;;;;2.04;100.00;102373.97;5054837;28;20048;-39
2024/01/13 10:04:25;;;;;;;34.95;28.17;;;;;;;2.03;100.00;102372.31;5053932;28;20032;-39
2024/01/13 10:06:50;;;;;;;33.57;28.40;;;;;;;2.05;100.00;102377.53;5054827;28;20036;-39
2024/01/13 10:09:16;;;;;;;32.90;27.87;;;;;;;2.06;100.00;102374.72;5054070;28;20029;-39
2024/01/13 10:11:42;;;;;;;31.90;28.07;;;;;;;2.00;100.00;102363.72;5054126;28;20031;-39
2024/01/13 10:14:08;;;;;;;33.00;27.60;;;;;;;2.08;100.00;102363.03;5054500;28;20365;-39
2024/01/13 10:16:35;;;;;;;32.55;27.42;;;;;;;2.00;100.00;102353.03;5054546;28;20025;-39
2024/01/13 10:19:05;;;;;;;34.00;27.38;;;;;;;1.93;100.00;102335.91;5053678;28;20370;-39
2024/01/13 10:21:31;;;;;;;29.27;26.02;;;;;;;2.02;100.00;102345.78;5052433;28;20036;-39
2024/01/13 10:23:57;;;;;;;31.77;28.15;;;;;;;2.10;100.00;102355.72;5053337;28;20036;-39
2024/01/13 10:26:24;;;;;;;31.20;27.67;;;;;;;2.11;100.00;102354.78;5054342;28;20040;-39
2024/01/13 10:28:50;;;;;;;31.15;26.23;;;;;;;2.07;100.00;102346.19;5054075;28;20119;-39
2024/01/13 10:31:17;;;;;;;32.30;27.20;;;;;;;2.03;100.00;102332.28;5053760;28;20452;-39
2024/01/13 10:33:48;;;;;;;30.67;26.50;;;;;;;2.10;100.00;102351.25;5053148;28;20496;-39
2024/01/13 10:36:15;;;;;;;29.30;26.10;;;;;;;2.11;100.00;102352.94;5053934;28;20040;-39
2024/01/13 10:38:42;;;;;;;29.60;26.48;;;;;;;2.10;100.00;102347.72;5053482;28;20025;-39
2024/01/13 10:41:11;;;;;;;28.02;24.83;;;;;;;2.12;100.00;102351.13;5054244;28;20031;-39
2024/01/13 10:43:41;;;;;;;29.00;25.35;;;;;;;2.13;100.00;102350.97;5053297;28;20017;-39
2024/01/13 10:46:11;;;;;;;30.88;25.75;;;;;;;2.11;100.00;102350.28;5053642;28;20409;-39
2024/01/13 10:48:42;;;;;;;30.25;26.98;;;;;;;2.12;100.00;102340.44;5053407;28;20032;-39
2024/01/13 10:51:19;;;;;;;27.65;24.15;;;;;;;2.14;100.00;102341.97;5053948;28;20031;-39
2024/01/13 10:53:46;;;;;;;28.83;25.73;;;;;;;2.10;100.00;102334.38;5053252;28;20072;-39
2024/01/13 10:56:12;;;;;;;;;;;;;;;2.18;100.00;102337.22;5054057;28;20085;-39
2024/01/13 10:58:37;;;;;;;29.42;25.58;;;;;;;2.13;100.00;102329.63;5053141;28;20345;-39
2024/01/13 11:01:04;;;;;;;27.97;24.97;;;;;;;2.12;100.00;102322.59;5053155;28;20116;-39
2024/01/13 11:03:31;;;;;;;28.35;24.65;;;;;;;2.13;100.00;102315.44;5053072;28;20333;-39